Lewellen, Nebraska
Current Conditions -  °F | °C
As of 2:55 PM on Monday 20 Oct 2014 (Local Time) from KOGA Reporting Station
Clear Clear  
Wind Chill: 79°   Ceiling: Unl
Heat Index: 79°   Visibility: 10mi
Dew Point: 38°   Wind: 12mph
Humidity: 23%   Direction: 170°S
Pressure: 30.05"   Gusts: 20mph
Location:  41.33°N, 102.14°W
Report Text: KOGA 202055Z AUTO 17010G17KT 160V220 10SM CLR 26/04 A3005 RMK AO2 T02610035
Loading
Personal Weather Stations






























Interactive Weather Map
Tropical Storm Tracking
New forecast layout! Learn more

10-Day Weather Forecast

Advertisements
Track Severe Weather on mobile